Time;durP1;ratioP1;P1;durP2;ratioP2;P2;SDS_P1;SDS_P2;PMS_P1;PMS_P2;Temp;Humidity;BMP_temperature;BMP_pressure;BME280_temperature;BME280_humidity;BME280_pressure;Samples;Min_cycle;Max_cycle;Signal;HPM_P1;HPM_P2
2021/03/08 00:00:26;;;;;;;16.17;9.95;;;;;;;1.32;71.58;98737.63;3525188;28;20056;-47
2021/03/08 00:02:07;;;;;;;20.73;10.65;;;;;;;1.33;71.45;98739.34;3520809;28;20043;-47
2021/03/08 00:03:49;;;;;;;22.48;9.82;;;;;;;1.32;71.55;98735.06;3525910;28;20047;-46
2021/03/08 00:05:31;;;;;;;21.55;11.50;;;;;;;1.31;71.59;98733.31;3520797;28;20051;-46
2021/03/08 00:07:13;;;;;;;19.02;10.45;;;;;;;1.32;71.78;98746.97;3524456;28;20040;-47
2021/03/08 00:08:55;;;;;;;17.48;9.02;;;;;;;1.33;71.38;98731.69;3522936;28;20062;-47
2021/03/08 00:10:37;;;;;;;20.83;11.15;;;;;;;1.33;71.65;98734.22;3522690;28;20064;-46
2021/03/08 00:12:18;;;;;;;21.40;10.75;;;;;;;1.33;71.30;98725.69;3511338;28;20090;-46
2021/03/08 00:14:00;;;;;;;22.38;12.18;;;;;;;1.33;71.61;98724.00;3515488;28;20051;-47
2021/03/08 00:15:42;;;;;;;22.75;11.90;;;;;;;1.32;71.68;98724.84;3525593;28;20043;-47
2021/03/08 00:17:24;;;;;;;22.95;12.45;;;;;;;1.31;71.88;98720.53;3522061;28;20055;-47
2021/03/08 00:19:06;;;;;;;24.45;11.80;;;;;;;1.32;71.85;98722.28;3523835;28;20054;-46
2021/03/08 00:20:48;;;;;;;22.10;11.77;;;;;;;1.33;71.78;98715.47;3513139;28;20082;-46
2021/03/08 00:22:29;;;;;;;21.95;11.63;;;;;;;1.32;71.85;98714.63;3513933;28;20051;-58
2021/03/08 00:24:12;;;;;;;23.45;12.63;;;;;;;1.32;71.89;98711.22;3511182;28;20047;-58
2021/03/08 00:25:54;;;;;;;19.95;11.10;;;;;;;1.32;71.92;98703.53;3517350;28;20279;-58
2021/03/08 00:27:36;;;;;;;25.02;12.85;;;;;;;1.32;71.84;98701.00;3525514;28;20055;-58
2021/03/08 00:29:18;;;;;;;23.30;11.55;;;;;;;1.31;71.71;98697.53;3521097;28;20054;-57
2021/03/08 00:30:59;;;;;;;20.17;10.05;;;;;;;1.34;71.82;98701.91;3523145;28;20069;-58
2021/03/08 00:32:41;;;;;;;18.10;10.45;;;;;;;1.36;71.42;98696.03;3523002;28;20047;-58
2021/03/08 00:34:23;;;;;;;18.75;10.60;;;;;;;1.38;71.45;98693.53;3520512;28;20133;-58
2021/03/08 00:36:06;;;;;;;19.30;10.07;;;;;;;1.38;71.72;98686.72;3525354;28;20078;-58
2021/03/08 00:37:48;;;;;;;16.95;8.68;;;;;;;1.38;71.55;98694.38;3520365;28;20050;-58
2021/03/08 00:39:29;;;;;;;22.25;10.25;;;;;;;1.39;71.77;98695.28;3524586;28;20048;-58
2021/03/08 00:41:11;;;;;;;20.40;11.30;;;;;;;1.38;72.00;98680.75;3521062;28;20109;-57
2021/03/08 00:42:53;;;;;;;23.23;11.13;;;;;;;1.36;71.71;98687.50;3524372;28;20064;-58
2021/03/08 00:44:35;;;;;;;23.00;11.13;;;;;;;1.37;71.90;98682.44;3522929;28;20128;-58
2021/03/08 00:46:16;;;;;;;21.13;11.18;;;;;;;1.37;71.70;98684.09;3521761;28;20102;-58
2021/03/08 00:47:58;;;;;;;22.42;11.65;;;;;;;1.34;72.23;98679.78;3525340;28;20504;-58
2021/03/08 00:49:40;;;;;;;23.15;12.43;;;;;;;1.33;72.28;98685.69;3520942;28;20086;-58
2021/03/08 00:51:21;;;;;;;17.15;8.77;;;;;;;1.35;71.89;98680.63;3524825;28;20232;-58
2021/03/08 00:53:03;;;;;;;23.58;11.55;;;;;;;1.34;72.27;98674.66;3522084;28;20089;-58
2021/03/08 00:54:45;;;;;;;14.43;7.53;;;;;;;1.34;72.13;98676.34;3524364;28;20471;-49
2021/03/08 00:56:26;;;;;;;19.42;10.98;;;;;;;1.33;71.84;98669.50;3522730;28;20508;-48
2021/03/08 00:58:08;;;;;;;22.83;12.75;;;;;;;1.33;71.99;98672.91;3521467;28;20047;-47
2021/03/08 00:59:50;;;;;;;25.55;11.65;;;;;;;1.34;72.14;98669.56;3525495;28;20195;-57
2021/03/08 01:01:32;;;;;;;22.35;10.98;;;;;;;1.35;71.85;98670.41;3521519;28;20059;-58
2021/03/08 01:03:14;;;;;;;19.27;10.60;;;;;;;1.35;72.17;98670.41;3524395;28;20093;-58
2021/03/08 01:04:55;;;;;;;18.77;10.07;;;;;;;1.34;72.32;98669.56;3521099;28;20054;-58
2021/03/08 01:06:37;;;;;;;19.58;11.77;;;;;;;1.35;72.03;98666.19;3522773;28;20070;-57
2021/03/08 01:08:19;;;;;;;24.08;12.27;;;;;;;1.35;72.40;98655.09;3522567;28;20051;-58
2021/03/08 01:10:00;;;;;;;17.60;9.57;;;;;;;1.34;72.51;98651.66;3519821;28;20078;-58
2021/03/08 01:11:42;;;;;;;19.13;10.43;;;;;;;1.32;72.53;98653.31;3510907;28;20048;-57
2021/03/08 01:13:24;;;;;;;20.08;10.85;;;;;;;1.32;72.69;98652.44;3516785;28;20075;-58
2021/03/08 01:15:09;;;;;;;22.17;12.57;;;;;;;1.31;72.38;98641.34;3524219;28;20135;-58
2021/03/08 01:16:50;;;;;;;17.17;9.20;;;;;;;1.32;72.40;98644.78;3513531;28;20079;-58
2021/03/08 01:18:32;;;;;;;23.73;12.13;;;;;;;1.31;72.49;98637.94;3513606;28;21908;-58
2021/03/08 01:20:17;;;;;;;21.08;12.55;;;;;;;1.30;72.88;98637.06;3523208;28;20051;-58
2021/03/08 01:21:58;;;;;;;19.73;10.18;;;;;;;1.29;72.59;98635.31;3521040;28;20428;-58
2021/03/08 01:23:40;;;;;;;21.95;11.63;;;;;;;1.29;72.55;98640.41;3524900;28;20420;-58
2021/03/08 01:25:23;;;;;;;21.90;11.55;;;;;;;1.27;72.77;98636.94;3519800;28;20134;-58
2021/03/08 01:27:06;;;;;;;26.50;13.02;;;;;;;1.25;73.08;98637.69;3523173;28;20108;-58
2021/03/08 01:28:48;;;;;;;21.98;12.43;;;;;;;1.24;73.11;98639.41;3512234;28;20054;-58
2021/03/08 01:30:33;;;;;;;19.83;11.40;;;;;;;1.24;72.83;98638.53;3513452;28;20043;-57
2021/03/08 01:32:15;;;;;;;26.50;12.70;;;;;;;1.24;73.17;98636.84;3523458;28;20062;-58
2021/03/08 01:33:57;;;;;;;22.55;13.48;;;;;;;1.24;73.03;98638.53;3518216;28;20047;-58
2021/03/08 01:35:40;;;;;;;21.48;12.48;;;;;;;1.24;73.18;98630.88;3510275;28;20075;-58
2021/03/08 01:37:21;;;;;;;21.55;12.07;;;;;;;1.23;73.46;98629.13;3520652;28;20077;-58
2021/03/08 01:39:04;;;;;;;23.33;11.18;;;;;;;1.21;72.99;98626.50;3522594;28;20135;-58
2021/03/08 01:40:46;;;;;;;16.13;8.70;;;;;;;1.20;73.04;98629.91;3512375;28;20499;-58
2021/03/08 01:42:27;;;;;;;23.60;11.90;;;;;;;1.20;73.25;98639.25;3512637;28;20507;-58
2021/03/08 01:44:09;;;;;;;20.77;11.63;;;;;;;1.20;73.12;98641.81;3510289;28;20412;-58
2021/03/08 01:45:52;;;;;;;17.17;10.23;;;;;;;1.21;73.44;98639.28;3514810;28;20080;-58
2021/03/08 01:47:34;;;;;;;23.05;12.07;;;;;;;1.23;73.68;98636.78;3524834;28;20146;-58
2021/03/08 01:49:16;;;;;;;23.73;11.25;;;;;;;1.23;73.38;98634.22;3514146;28;20062;-58
2021/03/08 01:50:58;;;;;;;19.83;9.27;;;;;;;1.27;73.42;98633.53;3511040;28;20056;-58
2021/03/08 01:52:39;;;;;;;19.80;11.02;;;;;;;1.26;73.44;98640.31;3512488;28;20098;-58
2021/03/08 01:54:21;;;;;;;20.20;10.85;;;;;;;1.29;73.06;98642.13;3511748;28;20051;-58
2021/03/08 01:56:04;;;;;;;20.77;11.18;;;;;;;1.29;73.21;98639.56;3510995;28;20058;-57
2021/03/08 01:57:45;;;;;;;20.40;11.82;;;;;;;1.29;73.29;98634.44;3514340;28;20044;-58
2021/03/08 01:59:35;;;;;;;25.35;11.30;;;;;;;1.29;73.02;98632.75;3523253;28;20091;-58
2021/03/08 02:01:20;;;;;;;23.10;12.98;;;;;;;1.27;73.28;98634.41;3520506;28;20059;-58
2021/03/08 02:03:03;;;;;;;23.83;10.93;;;;;;;1.27;73.58;98642.06;3521696;28;20051;-58
2021/03/08 02:04:45;;;;;;;24.23;12.65;;;;;;;1.27;73.54;98633.53;3522617;28;20428;-58
2021/03/08 02:06:27;;;;;;;20.13;11.68;;;;;;;1.25;73.52;98624.94;3519073;28;20504;-58
2021/03/08 02:08:11;;;;;;;24.52;12.63;;;;;;;1.24;73.42;98634.28;3514206;28;20051;-57
2021/03/08 02:09:52;;;;;;;;;;;;;;;1.25;73.27;98632.59;3519990;28;20052;-58
2021/03/08 02:11:37;;;;;;;21.20;11.68;;;;;;;1.25;73.53;98630.03;3522723;28;19951;-57
2021/03/08 02:13:49;;;;;;;21.08;11.32;;;;;;;1.23;73.43;98627.47;3518831;28;20047;-58
2021/03/08 02:15:41;;;;;;;20.70;10.60;;;;;;;1.26;73.45;98632.66;3513821;28;20421;-47
2021/03/08 02:17:29;;;;;;;23.02;12.45;;;;;;;1.24;73.49;98631.72;3510085;28;20509;-46
2021/03/08 02:19:35;;;;;;;24.00;12.35;;;;;;;1.22;73.51;98619.75;3521430;28;20138;-58
2021/03/08 02:21:31;;;;;;;18.40;10.13;;;;;;;1.23;73.51;98634.22;3520719;28;20096;-58
2021/03/08 02:23:37;;;;;;;23.45;11.10;;;;;;;1.24;73.21;98635.97;3524370;28;20078;-58
2021/03/08 02:25:34;;;;;;;19.77;10.55;;;;;;;1.25;73.25;98627.47;3520797;28;20058;-58
2021/03/08 02:27:43;;;;;;;23.90;12.18;;;;;;;1.24;73.40;98628.31;3520529;28;20104;-57
2021/03/08 02:29:56;;;;;;;25.17;11.43;;;;;;;1.25;72.97;98630.03;3522034;28;20060;-58
2021/03/08 02:31:41;;;;;;;22.50;10.52;;;;;;;1.26;72.94;98634.34;3483670;28;20056;-58
2021/03/08 02:33:26;;;;;;;21.95;11.30;;;;;;;1.25;73.07;98624.94;3514507;28;20420;-58
2021/03/08 02:35:13;;;;;;;21.58;11.30;;;;;;;1.25;73.02;98638.59;3509895;28;20143;-58
2021/03/08 02:37:00;;;;;;;19.88;9.80;;;;;;;1.28;72.95;98630.16;3520625;28;20064;-58
2021/03/08 02:38:46;;;;;;;22.42;11.77;;;;;;;1.26;73.31;98629.22;3520983;28;20109;-58
2021/03/08 02:40:33;;;;;;;21.85;11.65;;;;;;;1.24;73.03;98629.19;3509983;28;20527;-58
2021/03/08 02:42:20;;;;;;;20.33;10.65;;;;;;;1.27;73.04;98628.44;3516904;28;20086;-58
2021/03/08 02:44:07;;;;;;;24.80;12.27;;;;;;;1.25;73.17;98630.94;3523547;28;20050;-57
2021/03/08 02:45:53;;;;;;;22.45;12.45;;;;;;;1.23;73.50;98626.56;3510672;28;20071;-58
2021/03/08 02:47:40;;;;;;;18.30;9.18;;;;;;;1.24;73.43;98620.66;3511024;28;20071;-47
2021/03/08 02:49:25;;;;;;;24.33;12.35;;;;;;;1.24;73.48;98615.53;3508718;28;20067;-47
2021/03/08 02:51:08;;;;;;;22.45;11.85;;;;;;;1.22;73.30;98612.94;3516497;28;20047;-47
2021/03/08 02:52:55;;;;;;;23.33;11.27;;;;;;;1.20;73.37;98611.16;3523551;28;20052;-46
2021/03/08 02:54:40;;;;;;;20.10;10.55;;;;;;;1.23;73.25;98616.34;3521090;28;20501;-47
2021/03/08 02:56:26;;;;;;;21.58;10.73;;;;;;;1.22;73.87;98610.38;3520161;28;20420;-46
2021/03/08 02:58:10;;;;;;;21.77;12.30;;;;;;;1.21;74.17;98612.88;3509720;28;20056;-47
2021/03/08 02:59:55;;;;;;;22.25;11.30;;;;;;;1.20;73.94;98614.56;3516508;28;20074;-47
2021/03/08 03:01:38;;;;;;;24.52;11.48;;;;;;;1.18;73.85;98606.00;3524017;28;20047;-46
2021/03/08 03:03:22;;;;;;;22.35;11.60;;;;;;;1.20;73.92;98614.56;3519613;28;20151;-46
2021/03/08 03:05:07;;;;;;;19.83;10.65;;;;;;;1.18;73.67;98611.97;3521727;28;20096;-58
2021/03/08 03:06:49;;;;;;;20.38;9.98;;;;;;;1.20;73.90;98611.16;3520797;28;20393;-57
2021/03/08 03:08:34;;;;;;;20.00;10.13;;;;;;;1.20;73.71;98609.47;3518749;28;20097;-58
2021/03/08 03:10:18;;;;;;;23.27;11.82;;;;;;;1.21;74.10;98607.78;3523697;28;20051;-58
2021/03/08 03:12:00;;;;;;;24.58;13.18;;;;;;;1.21;75.46;98620.53;3518662;28;20043;-56
2021/03/08 03:13:44;;;;;;;21.88;10.85;;;;;;;1.16;75.16;98618.72;3519428;28;20058;-58
2021/03/08 03:15:26;;;;;;;22.27;12.38;;;;;;;1.14;75.85;98619.47;3510737;28;20044;-58
2021/03/08 03:17:13;;;;;;;21.52;12.15;;;;;;;1.10;76.04;98623.59;3512743;28;20083;-57
2021/03/08 03:18:56;;;;;;;21.48;10.00;;;;;;;1.04;77.42;98625.97;3523648;28;20055;-47
2021/03/08 03:20:40;;;;;;;23.38;13.43;;;;;;;0.99;78.32;98627.47;3518880;28;20058;-46
2021/03/08 03:22:23;;;;;;;25.38;12.75;;;;;;;0.91;79.29;98617.00;3521994;28;20116;-47
2021/03/08 03:24:08;;;;;;;19.48;10.98;;;;;;;0.84;79.39;98630.34;3520548;28;20105;-46
2021/03/08 03:25:51;;;;;;;24.63;12.13;;;;;;;0.80;79.62;98623.41;3518575;28;20040;-47
2021/03/08 03:27:34;;;;;;;21.85;12.55;;;;;;;0.76;80.46;98634.34;3523278;28;20093;-47
2021/03/08 03:29:16;;;;;;;28.40;13.50;;;;;;;0.71;80.56;98634.16;3515519;28;20081;-58
2021/03/08 03:30:58;;;;;;;24.98;11.73;;;;;;;0.68;80.83;98626.38;3509411;28;20048;-57
2021/03/08 03:32:42;;;;;;;25.98;13.75;;;;;;;0.65;81.98;98635.63;3519869;28;20496;-58
2021/03/08 03:34:25;;;;;;;21.90;11.85;;;;;;;0.63;81.49;98629.59;3522520;28;20054;-57
2021/03/08 03:36:08;;;;;;;22.48;12.63;;;;;;;0.59;81.47;98633.72;3511268;28;20523;-57
2021/03/08 03:37:50;;;;;;;24.80;12.05;;;;;;;0.55;82.49;98630.19;3513285;28;20051;-58
2021/03/08 03:39:32;;;;;;;17.02;9.85;;;;;;;0.52;82.31;98632.63;3523793;28;20424;-58
2021/03/08 03:41:13;;;;;;;24.55;11.90;;;;;;;0.49;82.13;98627.44;3518417;28;20082;-57
2021/03/08 03:42:55;;;;;;;22.70;12.13;;;;;;;0.48;82.14;98628.22;3523147;28;20079;-57
2021/03/08 03:44:37;;;;;;;26.23;12.68;;;;;;;0.48;82.51;98630.78;3520667;28;20043;-58
2021/03/08 03:46:19;;;;;;;24.58;13.07;;;;;;;0.46;83.21;98622.19;3522348;28;20097;-58
2021/03/08 03:48:00;;;;;;;27.67;12.95;;;;;;;0.45;83.05;98623.00;3521309;28;20389;-58
2021/03/08 03:49:43;;;;;;;25.48;11.10;;;;;;;0.46;82.74;98618.78;3518423;28;20553;-58
2021/03/08 03:51:24;;;;;;;25.38;13.05;;;;;;;0.46;82.72;98624.75;3523489;28;20097;-58
2021/03/08 03:53:06;;;;;;;26.17;13.05;;;;;;;0.45;83.32;98628.09;3518346;28;20535;-58
2021/03/08 03:54:48;;;;;;;25.13;14.13;;;;;;;0.45;83.16;98634.91;3522561;28;20044;-58
2021/03/08 03:56:32;;;;;;;25.55;12.25;;;;;;;0.43;83.13;98632.28;3519489;28;20043;-57
2021/03/08 03:58:20;;;;;;;26.48;13.88;;;;;;;0.45;82.73;98627.25;3521942;28;20428;-58
2021/03/08 04:00:07;;;;;;;26.88;13.68;;;;;;;0.46;82.93;98627.31;3523797;28;20051;-58
2021/03/08 04:01:53;;;;;;;25.25;13.43;;;;;;;0.48;82.49;98622.25;3520862;28;20036;-58
2021/03/08 04:03:44;;;;;;;18.88;9.35;;;;;;;0.47;82.19;98618.84;3525842;28;20052;-58
2021/03/08 04:05:27;;;;;;;30.02;14.27;;;;;;;0.48;82.18;98618.03;3522298;28;20048;-58
2021/03/08 04:07:10;;;;;;;23.23;12.00;;;;;;;0.49;81.76;98618.88;3523861;28;20054;-58
2021/03/08 04:08:55;;;;;;;25.00;13.13;;;;;;;0.50;81.82;98620.63;3523438;28;20055;-57
2021/03/08 04:10:38;;;;;;;24.80;13.68;;;;;;;0.51;81.47;98614.72;3522240;28;20048;-58
2021/03/08 04:12:24;;;;;;;27.25;14.13;;;;;;;0.51;81.42;98615.59;3525277;28;20043;-58
2021/03/08 04:14:07;;;;;;;27.25;12.77;;;;;;;0.51;81.14;98617.28;3520122;28;20051;-57
2021/03/08 04:15:49;;;;;;;22.75;11.68;;;;;;;0.51;81.06;98614.72;3525190;28;20097;-58
2021/03/08 04:17:34;;;;;;;25.67;13.40;;;;;;;0.52;81.19;98611.34;3522082;28;20173;-58
2021/03/08 04:19:19;;;;;;;26.20;12.85;;;;;;;0.51;80.95;98623.25;3522525;28;20056;-58
2021/03/08 04:21:03;;;;;;;21.88;10.18;;;;;;;0.53;80.88;98613.09;3511528;28;20055;-57
2021/03/08 04:22:49;;;;;;;26.73;13.65;;;;;;;0.52;80.83;98617.31;3517510;28;20040;-58
2021/03/08 04:24:32;;;;;;;28.08;13.07;;;;;;;0.52;81.16;98621.56;3524463;28;20504;-58
2021/03/08 04:26:16;;;;;;;24.02;11.90;;;;;;;0.52;81.44;98624.97;3522355;28;20055;-58
2021/03/08 04:28:00;;;;;;;21.90;11.68;;;;;;;0.49;81.64;98612.13;3521944;28;20051;-58
2021/03/08 04:29:42;;;;;;;24.58;12.05;;;;;;;0.49;82.17;98622.31;3524101;28;20508;-58
2021/03/08 04:31:29;;;;;;;30.30;14.00;;;;;;;0.46;82.58;98623.91;3522138;28;20044;-57
2021/03/08 04:33:12;;;;;;;26.95;11.82;;;;;;;0.47;81.97;98620.50;3525336;28;20044;-58
2021/03/08 04:34:54;;;;;;;24.42;13.82;;;;;;;0.45;82.50;98623.00;3521759;28;20401;-58
2021/03/08 04:36:38;;;;;;;23.48;11.80;;;;;;;0.45;82.39;98619.59;3523171;28;20047;-58
2021/03/08 04:38:21;;;;;;;27.40;14.27;;;;;;;0.45;82.84;98612.81;3522895;28;20047;-58
2021/03/08 04:40:04;;;;;;;22.67;11.60;;;;;;;0.46;82.48;98621.34;3522083;28;20501;-58
2021/03/08 04:41:46;;;;;;;25.67;12.95;;;;;;;0.49;82.50;98629.09;3511583;28;20052;-58
2021/03/08 04:43:28;;;;;;;26.13;12.98;;;;;;;0.49;82.43;98622.31;3516957;28;20055;-58
2021/03/08 04:45:11;;;;;;;23.70;12.50;;;;;;;0.50;82.26;98621.50;3525362;28;20070;-58
2021/03/08 04:46:53;;;;;;;27.92;13.75;;;;;;;0.52;82.65;98626.66;3520928;28;20527;-58
2021/03/08 04:48:36;;;;;;;29.98;13.48;;;;;;;0.53;82.86;98631.81;3524330;28;20111;-58
2021/03/08 04:50:18;;;;;;;26.15;12.93;;;;;;;0.54;83.07;98637.78;3511991;28;20083;-58
2021/03/08 04:52:01;;;;;;;18.60;11.07;;;;;;;0.55;82.96;98622.53;3513404;28;20044;-57
2021/03/08 04:53:43;;;;;;;26.20;12.98;;;;;;;0.54;83.16;98625.03;3525401;28;20051;-58
2021/03/08 04:55:46;;;;;;;26.25;12.65;;;;;;;0.55;83.29;98625.09;3520983;28;20043;-58
2021/03/08 04:57:29;;;;;;;22.00;10.80;;;;;;;0.56;83.13;98626.84;3522519;28;20137;-47
2021/03/08 04:59:11;;;;;;;25.25;13.57;;;;;;;0.55;83.31;98627.63;3521873;28;20082;-48
2021/03/08 05:00:55;;;;;;;21.33;11.77;;;;;;;0.55;83.44;98637.84;3520315;28;20052;-47
2021/03/08 05:02:39;;;;;;;24.77;10.52;;;;;;;0.54;83.37;98618.25;3525142;28;20055;-47
2021/03/08 05:04:23;;;;;;;23.88;13.13;;;;;;;0.55;83.37;98630.19;3521419;28;20083;-47
2021/03/08 05:06:07;;;;;;;22.90;10.82;;;;;;;0.57;83.00;98631.09;3524553;28;20456;-46
2021/03/08 05:07:53;;;;;;;;;;;;;;;0.57;83.23;98622.59;3513051;28;20127;-47
2021/03/08 05:09:35;;;;;;;22.17;10.85;;;;;;;0.57;83.20;98636.22;3514146;28;20292;-47
2021/03/08 05:11:18;;;;;;;22.83;11.02;;;;;;;0.56;83.38;98634.50;3522741;28;20054;-46
2021/03/08 05:13:01;;;;;;;25.33;11.63;;;;;;;0.56;83.43;98637.03;3518476;28;20052;-48
2021/03/08 05:14:43;;;;;;;24.42;10.95;;;;;;;0.57;82.93;98640.44;3525210;28;20066;-47
2021/03/08 05:16:26;;;;;;;20.38;11.57;;;;;;;0.60;83.16;98646.53;3519924;28;20515;-47
2021/03/08 05:18:10;;;;;;;25.67;13.18;;;;;;;0.60;83.19;98628.66;3523871;28;20563;-47
2021/03/08 05:19:53;;;;;;;24.65;11.98;;;;;;;0.60;82.96;98640.56;3521249;28;20051;-47
2021/03/08 05:21:35;;;;;;;24.98;13.05;;;;;;;0.59;82.85;98634.59;3521724;28;20402;-47
2021/03/08 05:23:18;;;;;;;29.35;13.77;;;;;;;0.61;82.79;98643.19;3524641;28;20504;-47
2021/03/08 05:25:00;;;;;;;26.83;11.80;;;;;;;0.63;82.77;98643.25;3520070;28;20108;-58
2021/03/08 05:26:42;;;;;;;26.27;13.57;;;;;;;0.63;82.96;98637.25;3525061;28;20313;-58
2021/03/08 05:28:24;;;;;;;23.73;13.13;;;;;;;0.64;82.62;98637.31;3520565;28;20272;-58
2021/03/08 05:30:07;;;;;;;27.63;13.43;;;;;;;0.64;82.68;98639.84;3523803;28;20464;-58
2021/03/08 05:31:50;;;;;;;26.85;13.50;;;;;;;0.65;82.98;98645.81;3511497;28;20428;-58
2021/03/08 05:33:32;;;;;;;27.02;13.13;;;;;;;0.64;82.72;98647.50;3513294;28;20044;-58
2021/03/08 05:35:16;;;;;;;25.55;12.68;;;;;;;0.64;82.93;98646.66;3524881;28;20051;-58
2021/03/08 05:36:58;;;;;;;24.90;13.60;;;;;;;0.63;83.01;98656.00;3516906;28;20082;-58
2021/03/08 05:38:44;;;;;;;23.52;11.68;;;;;;;0.62;82.89;98656.81;3510262;28;20075;-58
2021/03/08 05:40:33;;;;;;;29.05;14.38;;;;;;;0.61;83.33;98650.84;3521646;28;20047;-58
2021/03/08 05:42:16;;;;;;;25.90;13.10;;;;;;;0.62;83.25;98651.69;3522361;28;20047;-58
2021/03/08 05:44:03;;;;;;;23.35;11.57;;;;;;;0.62;83.08;98659.34;3510600;28;20047;-58
2021/03/08 05:45:54;;;;;;;22.40;12.43;;;;;;;0.62;83.25;98661.91;3516608;28;20051;-58
2021/03/08 05:48:15;;;;;;;27.10;11.82;;;;;;;0.63;83.22;98657.66;3524124;28;20062;-58
2021/03/08 05:50:18;;;;;;;29.48;12.63;;;;;;;0.62;83.12;98659.34;3522214;28;20051;-58
2021/03/08 05:52:54;;;;;;;25.60;13.15;;;;;;;0.62;83.36;98684.88;3519487;28;20082;-58
2021/03/08 05:55:12;;;;;;;28.60;13.27;;;;;;;0.62;83.60;98674.66;3521355;28;20055;-58
2021/03/08 05:57:26;;;;;;;19.30;9.98;;;;;;;0.61;82.51;98685.69;3521454;28;20055;-58
2021/03/08 05:59:33;;;;;;;9.77;4.18;;;;;;;0.54;77.65;98686.25;3509617;28;20108;-58
2021/03/08 06:01:42;;;;;;;6.43;3.90;;;;;;;0.50;77.93;98699.72;3520790;28;20250;-46
2021/03/08 06:03:41;;;;;;;6.75;3.42;;;;;;;0.45;76.87;98688.47;3520798;28;20052;-47
2021/03/08 06:05:58;;;;;;;4.60;2.63;;;;;;;0.40;76.20;98709.59;3524171;28;20406;-47
2021/03/08 06:08:13;;;;;;;9.65;4.72;;;;;;;0.35;74.98;98702.56;3510291;28;20505;-47
2021/03/08 06:09:56;;;;;;;6.60;2.35;;;;;;;0.30;74.74;98715.16;3478329;28;20570;-47
2021/03/08 06:11:44;;;;;;;5.47;2.50;;;;;;;0.29;75.18;98712.53;3522048;28;20044;-47
2021/03/08 06:13:28;;;;;;;9.18;4.07;;;;;;;0.27;75.43;98716.72;3512732;28;20054;-48
2021/03/08 06:15:13;;;;;;;3.17;1.77;;;;;;;0.23;74.83;98719.13;3520842;28;20086;-47
2021/03/08 06:16:57;;;;;;;3.22;1.95;;;;;;;0.20;74.31;98719.00;3523595;28;20051;-47
2021/03/08 06:18:45;;;;;;;4.22;2.15;;;;;;;0.20;74.81;98726.66;3520845;28;20051;-58
2021/03/08 06:20:27;;;;;;;5.05;2.92;;;;;;;0.18;75.29;98735.94;3520492;28;20487;-58
2021/03/08 06:22:10;;;;;;;4.10;2.38;;;;;;;0.17;75.08;98744.41;3522467;28;20078;-58
2021/03/08 06:23:53;;;;;;;5.93;2.50;;;;;;;0.16;75.13;98739.25;3520789;28;20075;-58
2021/03/08 06:25:37;;;;;;;4.55;2.35;;;;;;;0.15;75.06;98740.91;3524301;28;20169;-58
2021/03/08 06:27:21;;;;;;;3.97;2.17;;;;;;;0.16;75.14;98741.78;3520908;28;20051;-47
2021/03/08 06:29:03;;;;;;;5.20;2.80;;;;;;;0.16;74.63;98744.34;3521997;28;20507;-47
2021/03/08 06:30:45;;;;;;;6.47;3.15;;;;;;;0.17;74.72;98740.97;3520726;28;20055;-48
2021/03/08 06:32:28;;;;;;;5.68;3.20;;;;;;;0.17;74.55;98752.06;3520266;28;20075;-47
2021/03/08 06:34:10;;;;;;;3.67;2.45;;;;;;;0.16;75.05;98747.75;3523133;28;20496;-47
2021/03/08 06:35:53;;;;;;;4.53;2.40;;;;;;;0.17;75.06;98758.81;3517855;28;20043;-48
2021/03/08 06:37:35;;;;;;;3.05;1.80;;;;;;;0.15;73.46;98755.34;3510343;28;20117;-47
2021/03/08 06:39:16;;;;;;;3.47;1.55;;;;;;;0.12;72.97;98756.09;3518462;28;20456;-46
2021/03/08 06:40:59;;;;;;;4.60;1.88;;;;;;;0.10;72.35;98757.72;3522878;28;20125;-47
2021/03/08 06:42:42;;;;;;;3.97;1.60;;;;;;;0.06;71.74;98755.84;3521458;28;20557;-47
2021/03/08 06:44:23;;;;;;;5.25;1.90;;;;;;;0.04;71.92;98754.91;3519342;28;20044;-46
2021/03/08 06:46:05;;;;;;;9.65;2.92;;;;;;;0.02;71.70;98751.44;3510115;28;20044;-58
2021/03/08 06:47:47;;;;;;;5.40;2.05;;;;;;;0.01;71.88;98754.78;3516739;28;20039;-58
2021/03/08 06:49:29;;;;;;;4.68;1.70;;;;;;;-0.00;72.22;98750.50;3523973;28;20440;-46
2021/03/08 06:51:13;;;;;;;2.83;1.42;;;;;;;-0.02;71.19;98759.78;3519099;28;20069;-46
2021/03/08 06:52:54;;;;;;;2.40;1.38;;;;;;;-0.02;72.00;98760.63;3521520;28;20104;-46
2021/03/08 06:54:37;;;;;;;5.35;1.88;;;;;;;-0.01;71.73;98764.91;3521585;28;20063;-46
2021/03/08 06:56:21;;;;;;;5.13;1.90;;;;;;;0.01;71.55;98759.88;3519254;28;20138;-48
2021/03/08 06:58:17;;;;;;;3.13;1.33;;;;;;;0.03;71.44;98758.25;3524606;28;20070;-48
2021/03/08 07:00:00;;;;;;;3.80;1.98;;;;;;;0.06;71.91;98753.28;3512802;28;20540;-46
2021/03/08 07:01:45;;;;;;;2.63;1.88;;;;;;;0.09;71.61;98766.16;3510100;28;20055;-47
2021/03/08 07:03:31;;;;;;;4.82;1.95;;;;;;;0.12;71.12;98758.66;3511864;28;20131;-47
2021/03/08 07:05:15;;;;;;;4.80;2.15;;;;;;;0.15;70.89;98763.00;3513517;28;20044;-46
2021/03/08 07:07:01;;;;;;;4.72;1.52;;;;;;;0.18;71.21;98756.31;3523973;28;20059;-47
2021/03/08 07:08:44;;;;;;;3.90;1.10;;;;;;;0.21;69.79;98756.47;3520347;28;20105;-48
2021/03/08 07:10:33;;;;;;;3.38;1.40;;;;;;;0.19;68.66;98755.53;3522110;28;20465;-46
2021/03/08 07:12:15;;;;;;;3.60;1.20;;;;;;;0.17;69.01;98752.06;3511331;28;20077;-46
2021/03/08 07:13:59;;;;;;;2.38;1.55;;;;;;;0.17;69.14;98763.91;3513794;28;20051;-46
2021/03/08 07:15:53;;;;;;;2.47;1.27;;;;;;;0.11;68.94;98762.00;3523032;28;20048;-46
2021/03/08 07:17:37;;;;;;;2.83;1.17;;;;;;;0.11;69.34;98758.59;3520370;28;20081;-46
2021/03/08 07:19:19;;;;;;;3.00;1.10;;;;;;;0.11;69.15;98762.00;3523380;28;20044;-47
2021/03/08 07:21:20;;;;;;;3.65;1.17;;;;;;;0.12;68.64;98770.50;3520857;28;20054;-47
2021/03/08 07:23:02;;;;;;;1.85;1.00;;;;;;;0.13;69.97;98768.03;3521570;28;20051;-47
2021/03/08 07:24:56;;;;;;;2.83;1.33;;;;;;;0.18;70.46;98760.56;3524003;28;20055;-46
2021/03/08 07:26:49;;;;;;;3.75;1.45;;;;;;;0.23;69.00;98764.19;3520783;28;20054;-47
2021/03/08 07:28:30;;;;;;;1.90;0.98;;;;;;;0.25;68.09;98766.78;3520222;28;20089;-46
2021/03/08 07:30:14;;;;;;;1.70;1.02;;;;;;;0.28;67.93;98764.34;3522840;28;20426;-59
2021/03/08 07:31:56;;;;;;;3.35;1.27;;;;;;;0.33;69.71;98766.28;3517510;28;20044;-59
2021/03/08 07:33:58;;;;;;;2.40;1.23;;;;;;;0.41;70.19;98767.44;3513395;28;20043;-58
2021/03/08 07:35:42;;;;;;;2.25;0.90;;;;;;;0.48;68.35;98775.34;3522639;28;20056;-58
2021/03/08 07:37:24;;;;;;;2.10;0.85;;;;;;;0.47;68.11;98766.84;3523646;28;20071;-58
2021/03/08 07:39:11;;;;;;;2.65;1.17;;;;;;;0.51;68.72;98767.81;3524753;28;20048;-58
2021/03/08 07:40:54;;;;;;;2.13;0.90;;;;;;;0.54;68.78;98768.81;3521080;28;20279;-58
2021/03/08 07:42:42;;;;;;;2.00;0.90;;;;;;;0.57;68.76;98770.59;3526282;28;20500;-58
2021/03/08 07:44:26;;;;;;;1.92;1.00;;;;;;;0.61;69.51;98762.22;3523083;28;20050;-57
2021/03/08 07:46:24;;;;;;;;;;;;;;;0.66;68.85;98765.84;3524895;28;20059;-58
2021/03/08 07:48:11;;;;;;;4.30;1.73;;;;;;;0.70;66.57;98771.91;3511706;28;19928;-58
2021/03/08 07:49:54;;;;;;;2.28;1.45;;;;;;;0.68;66.89;98782.06;3519131;28;20051;-58
2021/03/08 07:51:35;;;;;;;2.75;0.77;;;;;;;0.64;67.13;98780.22;3525523;28;20063;-58
2021/03/08 07:53:28;;;;;;;1.48;0.82;;;;;;;0.57;67.37;98781.66;3522581;28;20055;-58
2021/03/08 07:55:11;;;;;;;3.72;1.33;;;;;;;0.54;67.77;98779.00;3522319;28;20537;-58
2021/03/08 07:56:54;;;;;;;1.92;1.05;;;;;;;0.55;67.60;98777.31;3524595;28;20051;-58
2021/03/08 07:58:37;;;;;;;3.55;1.30;;;;;;;0.54;67.78;98790.88;3520993;28;20499;-58
2021/03/08 08:00:20;;;;;;;4.15;1.42;;;;;;;0.57;66.99;98779.09;3525814;28;20062;-58
2021/03/08 08:02:02;;;;;;;4.10;1.65;;;;;;;0.59;65.47;98789.38;3520788;28;20096;-58
2021/03/08 08:03:44;;;;;;;5.28;1.45;;;;;;;0.69;66.15;98776.16;3523794;28;20465;-58
2021/03/08 08:05:26;;;;;;;1.77;0.80;;;;;;;0.80;64.18;98785.09;3513493;28;20044;-57
2021/03/08 08:07:09;;;;;;;1.65;0.82;;;;;;;0.97;63.09;98767.88;3515121;28;20531;-58
2021/03/08 08:08:52;;;;;;;6.22;1.00;;;;;;;1.09;62.87;98775.13;3525131;28;20048;-58
2021/03/08 08:10:37;;;;;;;1.77;1.00;;;;;;;1.23;61.33;98772.16;3521264;28;20062;-58
2021/03/08 08:12:23;;;;;;;4.72;1.17;;;;;;;1.36;59.94;98759.91;3525756;28;20051;-58
2021/03/08 08:14:05;;;;;;;2.13;1.00;;;;;;;1.54;60.23;98764.78;3520259;28;20078;-58